Time;durP1;ratioP1;P1;durP2;ratioP2;P2;SDS_P1;SDS_P2;PMS_P1;PMS_P2;Temp;Humidity;BMP_temperature;BMP_pressure;BME280_temperature;BME280_humidity;BME280_pressure;Samples;Min_cycle;Max_cycle;Signal;HPM_P1;HPM_P2
2022/09/20 00:01:09;;;;;;;2.53;1.60;;;;;;;11.41;76.02;99738.00;4362004;32;34729;-76
2022/09/20 00:03:39;;;;;;;1.60;1.30;;;;;;;11.77;75.24;99735.63;4348521;32;34031;-76
2022/09/20 00:06:09;;;;;;;2.12;1.58;;;;;;;12.15;73.61;99737.38;4348712;32;34769;-76
2022/09/20 00:08:37;;;;;;;3.33;1.77;;;;;;;11.55;75.89;99738.41;4362027;32;33278;-76
2022/09/20 00:11:09;;;;;;;2.45;1.58;;;;;;;11.79;75.25;99739.75;4348743;32;34009;-76
2022/09/20 00:13:37;;;;;;;1.92;1.30;;;;;;;11.94;74.43;99733.66;4348599;32;34326;-76
2022/09/20 00:16:10;;;;;;;1.92;1.58;;;;;;;12.22;73.21;99735.25;4361657;32;34039;-76
2022/09/20 00:18:38;;;;;;;2.60;1.60;;;;;;;11.94;74.22;99738.28;4348628;32;33694;-76
2022/09/20 00:21:06;;;;;;;3.75;1.58;;;;;;;12.02;73.84;99733.19;4348291;32;33643;-76
2022/09/20 00:23:34;;;;;;;1.70;1.40;;;;;;;12.06;73.97;99742.47;4361942;32;34331;-76
2022/09/20 00:26:03;;;;;;;1.62;1.40;;;;;;;11.69;74.98;99737.75;4361816;32;33364;-76
2022/09/20 00:28:31;;;;;;;2.03;1.40;;;;;;;11.95;74.17;99735.31;4362684;32;33514;-76
2022/09/20 00:30:59;;;;;;;2.33;1.50;;;;;;;12.30;72.67;99742.13;4363889;32;33969;-77
2022/09/20 00:35:06;;;;;;;2.22;1.52;;;;;;;12.00;73.68;99739.97;4350453;32;34276;-77
2022/09/20 00:36:14;;;;;;;1.98;1.42;;;;;;;12.16;72.50;99736.31;4363911;32;34644;-77
2022/09/20 00:38:41;;;;;;;1.70;1.30;;;;;;;11.70;74.23;99730.41;4363975;32;33475;-77
2022/09/20 00:41:09;;;;;;;1.50;1.40;;;;;;;11.31;75.85;99735.97;4363506;32;34761;-77
2022/09/20 00:43:44;;;;;;;1.60;1.20;;;;;;;11.63;74.80;99730.62;4363795;32;34182;-76
2022/09/20 00:46:26;;;;;;;;;;;;;;;11.34;76.14;99724.63;4364349;32;33951;-77
2022/09/20 00:48:58;;;;;;;1.52;1.40;;;;;;;11.08;76.70;99727.03;4363968;32;33560;-77
2022/09/20 00:51:28;;;;;;;1.33;1.20;;;;;;;11.33;76.24;99733.81;4350119;32;34710;-77
2022/09/20 00:53:58;;;;;;;1.83;1.30;;;;;;;11.43;75.54;99731.22;4363616;32;34079;-77
2022/09/20 00:56:32;;;;;;;1.52;1.30;;;;;;;11.05;76.13;99734.84;4350247;32;33757;-76
2022/09/20 00:59:18;;;;;;;1.93;1.40;;;;;;;11.36;75.73;99738.75;4363570;32;33414;-77
2022/09/20 01:01:48;;;;;;;1.85;1.30;;;;;;;11.31;75.99;99744.13;4363815;32;33947;-76
2022/09/20 01:04:17;;;;;;;2.33;1.20;;;;;;;12.07;72.77;99744.13;4363438;32;34257;-76
2022/09/20 01:06:44;;;;;;;2.35;1.30;;;;;;;11.55;74.41;99755.53;4363622;32;34222;-77
2022/09/20 01:09:12;;;;;;;1.92;1.33;;;;;;;11.90;72.74;99749.69;4363740;32;33795;-76
2022/09/20 01:11:39;;;;;;;1.60;1.20;;;;;;;12.05;71.89;99753.59;4350259;32;34630;-76
2022/09/20 01:14:07;;;;;;;1.50;1.30;;;;;;;11.98;71.97;99758.44;4363624;32;35087;-76
2022/09/20 01:16:36;;;;;;;1.52;1.42;;;;;;;11.46;74.37;99754.34;4349987;32;34774;-76
2022/09/20 01:19:17;;;;;;;1.77;1.30;;;;;;;12.11;71.26;99749.84;4350039;32;34263;-76
2022/09/20 01:21:46;;;;;;;1.73;1.30;;;;;;;12.06;71.45;99757.97;4350139;32;34003;-76
2022/09/20 01:24:19;;;;;;;2.42;1.40;;;;;;;12.05;71.75;99748.16;4350200;32;34247;-76
2022/09/20 01:27:01;;;;;;;1.92;1.30;;;;;;;11.39;73.89;99761.88;4349954;32;34659;-76
2022/09/20 01:29:56;;;;;;;2.12;1.37;;;;;;;11.56;73.64;99756.38;4349958;32;33369;-76
2022/09/20 01:32:34;;;;;;;1.45;1.30;;;;;;;11.52;74.33;99756.03;4363435;32;34696;-77
2022/09/20 01:35:02;;;;;;;1.60;1.30;;;;;;;11.87;72.86;99763.75;4350112;32;35401;-76
2022/09/20 01:38:01;;;;;;;1.90;1.30;;;;;;;12.16;71.16;99757.22;4350399;32;33783;-76
2022/09/20 01:40:46;;;;;;;1.55;1.20;;;;;;;11.84;72.20;99758.00;4344551;32;33447;-77
2022/09/20 01:43:29;;;;;;;2.37;1.20;;;;;;;10.97;75.64;99763.25;4349952;32;34787;-76
2022/09/20 01:46:03;;;;;;;3.22;1.40;;;;;;;11.55;74.17;99769.09;4350004;32;35092;-77
2022/09/20 01:48:39;;;;;;;1.45;1.35;;;;;;;11.52;74.15;99776.97;4349979;32;33819;-76
2022/09/20 01:51:21;;;;;;;1.58;1.40;;;;;;;11.43;73.89;99768.44;4363640;32;33567;-77
2022/09/20 01:54:06;;;;;;;1.90;1.48;;;;;;;11.42;74.41;99770.31;4363280;32;34767;-76
2022/09/20 01:56:48;;;;;;;2.20;1.40;;;;;;;11.03;75.45;99770.38;4363409;32;35036;-76
2022/09/20 01:59:24;;;;;;;1.85;1.40;;;;;;;10.95;76.49;99768.12;4363025;32;33883;-76
2022/09/20 02:01:52;;;;;;;1.55;1.20;;;;;;;11.11;76.11;99781.91;4363375;32;33669;-76
2022/09/20 02:04:32;;;;;;;2.80;1.33;;;;;;;11.42;75.05;99781.19;4362987;32;34047;-76
2022/09/20 02:07:40;;;;;;;2.55;1.40;;;;;;;11.30;75.74;99772.37;4363414;32;34150;-76
2022/09/20 02:10:19;;;;;;;1.55;1.08;;;;;;;10.84;77.88;99774.47;4353762;32;33895;-76
2022/09/20 02:12:55;;;;;;;1.85;1.45;;;;;;;11.05;77.03;99778.28;4363116;32;33525;-76
2022/09/20 02:15:44;;;;;;;1.92;1.35;;;;;;;11.01;76.94;99774.41;4363389;32;34789;-77
2022/09/20 02:18:46;;;;;;;2.10;1.52;;;;;;;11.71;73.46;99783.72;4363195;32;35024;-76
2022/09/20 02:21:33;;;;;;;1.92;1.52;;;;;;;11.77;73.49;99790.84;4349475;32;34034;-76
2022/09/20 02:24:18;;;;;;;1.60;1.30;;;;;;;11.48;74.59;99785.59;4363242;32;34364;-77
2022/09/20 02:26:49;;;;;;;2.40;1.45;;;;;;;11.87;73.14;99790.13;4362977;32;34092;-76
2022/09/20 02:29:32;;;;;;;2.67;1.65;;;;;;;12.24;71.08;99779.34;4362987;32;34234;-76
2022/09/20 02:32:12;;;;;;;1.60;1.27;;;;;;;12.09;71.41;99779.19;4363173;32;34665;-77
2022/09/20 02:35:18;;;;;;;1.50;1.40;;;;;;;12.29;70.44;99790.28;4349808;32;34326;-77
2022/09/20 02:38:10;;;;;;;1.30;1.20;;;;;;;11.77;72.51;99790.00;4339108;32;34778;-76
2022/09/20 02:40:46;;;;;;;5.72;1.55;;;;;;;11.90;71.71;99790.47;4363331;32;34093;-77
2022/09/20 02:43:40;;;;;;;2.45;1.50;;;;;;;11.00;74.92;99784.47;4362837;32;34678;-76
2022/09/20 02:46:13;;;;;;;1.70;1.37;;;;;;;11.30;74.04;99780.50;4363078;32;33534;-76
2022/09/20 02:48:55;;;;;;;2.10;1.52;;;;;;;11.13;74.35;99786.00;4349443;32;33687;-77
2022/09/20 02:51:29;;;;;;;1.77;1.48;;;;;;;11.24;74.37;99790.47;4348871;32;34029;-77
2022/09/20 02:54:22;;;;;;;1.55;1.12;;;;;;;12.02;70.42;99792.19;4349184;32;34493;-77
2022/09/20 02:57:02;;;;;;;2.83;1.60;;;;;;;11.87;69.60;99803.72;4363073;32;33629;-76
2022/09/20 02:59:51;;;;;;;1.90;1.60;;;;;;;11.43;71.16;99801.03;4349270;32;33891;-77
2022/09/20 03:02:26;;;;;;;1.52;1.40;;;;;;;11.37;71.99;99807.47;4349264;32;33950;-77
2022/09/20 03:05:16;;;;;;;2.42;1.55;;;;;;;11.83;70.42;99808.00;4349232;32;33633;-76
2022/09/20 03:08:02;;;;;;;2.30;1.70;;;;;;;11.85;69.71;99814.81;4349435;32;34286;-76
2022/09/20 03:10:50;;;;;;;2.20;1.58;;;;;;;11.63;70.74;99803.19;4362796;32;34020;-76
2022/09/20 03:13:40;;;;;;;2.22;1.90;;;;;;;11.51;71.57;99825.03;4349184;32;34785;-76
2022/09/20 03:16:35;;;;;;;3.75;1.92;;;;;;;11.24;72.66;99809.50;4362997;32;34059;-76
2022/09/20 03:19:13;;;;;;;2.53;1.80;;;;;;;11.33;72.98;99815.31;4362676;32;33431;-76
2022/09/20 03:22:00;;;;;;;3.67;1.98;;;;;;;11.39;73.15;99808.06;4349055;32;34777;-76
2022/09/20 03:25:03;;;;;;;4.00;2.08;;;;;;;11.45;73.12;99804.34;4349028;32;34976;-76
2022/09/20 03:27:56;;;;;;;1.98;1.77;;;;;;;11.90;71.34;99800.53;4349078;32;34781;-76
2022/09/20 03:30:42;;;;;;;2.45;1.83;;;;;;;11.75;72.35;99805.75;4362278;32;33201;-76
2022/09/20 03:33:15;;;;;;;2.55;2.00;;;;;;;11.38;74.16;99800.97;4362588;32;33965;-77
2022/09/20 03:36:05;;;;;;;3.12;2.08;;;;;;;11.75;71.91;99806.59;4362602;32;35000;-76
2022/09/20 03:39:04;;;;;;;2.42;1.77;;;;;;;11.05;74.45;99798.09;4362561;32;33863;-76
2022/09/20 03:42:00;;;;;;;2.97;2.10;;;;;;;11.61;72.44;99806.12;4349127;32;34393;-76
2022/09/20 03:44:43;;;;;;;2.78;2.20;;;;;;;11.45;72.83;99799.72;4359176;32;34893;-76
2022/09/20 03:47:20;;;;;;;2.33;1.87;;;;;;;10.75;74.09;99803.09;4362480;32;34244;-77
2022/09/20 03:50:10;;;;;;;2.90;2.10;;;;;;;11.41;72.61;99795.03;4362367;32;33943;-76
2022/09/20 03:52:50;;;;;;;2.40;1.90;;;;;;;11.19;73.52;99804.00;4348469;32;34490;-77
2022/09/20 03:55:37;;;;;;;3.40;2.10;;;;;;;11.42;72.40;99793.94;4348931;32;34776;-76
2022/09/20 03:58:21;;;;;;;2.55;2.00;;;;;;;11.72;70.81;99800.81;4362166;32;35204;-77
2022/09/20 04:00:55;;;;;;;3.12;2.28;;;;;;;11.22;72.79;99797.25;4362281;32;34100;-76
2022/09/20 04:03:36;;;;;;;4.00;2.40;;;;;;;11.40;72.30;99794.22;4363563;32;33277;-76
2022/09/20 04:06:17;;;;;;;4.18;2.28;;;;;;;11.41;71.97;99795.03;4350639;32;34047;-77
2022/09/20 04:09:00;;;;;;;2.83;2.35;;;;;;;11.59;71.18;99791.97;4350672;32;34139;-76
2022/09/20 04:11:40;;;;;;;4.22;2.50;;;;;;;11.18;73.01;99788.78;4350439;32;33815;-76
2022/09/20 04:14:17;;;;;;;3.15;2.53;;;;;;;11.35;71.82;99798.78;4345827;32;164132;-76
2022/09/20 04:16:52;;;;;;;3.35;2.50;;;;;;;11.55;71.03;99807.16;4363816;32;34055;-76
2022/09/20 04:19:41;;;;;;;3.70;2.45;;;;;;;11.62;70.47;99810.50;4350497;32;34289;-76
2022/09/20 04:22:08;;;;;;;3.78;2.78;;;;;;;11.57;70.57;99815.88;4363650;32;34725;-77
2022/09/20 04:24:47;;;;;;;4.07;3.03;;;;;;;11.60;70.21;99809.13;4364081;32;34227;-77
2022/09/20 04:27:21;;;;;;;4.05;2.83;;;;;;;11.50;70.44;99817.97;4350530;32;34044;-76
2022/09/20 04:29:51;;;;;;;;;;;;;;;11.36;70.96;99811.25;4348452;32;34387;-76
2022/09/20 04:32:40;;;;;;;4.78;3.03;;;;;;;11.27;71.41;99813.59;4345422;32;34381;-75
2022/09/20 04:38:07;;;;;;;5.47;3.47;;;;;;;10.97;72.32;99806.69;4348817;33;34470;-76
2022/09/20 04:41:15;;;;;;;6.37;3.40;;;;;;;11.16;71.94;99812.63;4347730;33;35149;-76
2022/09/20 04:44:08;;;;;;;5.10;3.60;;;;;;;10.99;72.71;99814.56;4349219;33;34016;-77
2022/09/20 04:47:00;;;;;;;5.10;3.60;;;;;;;10.54;74.89;99816.38;4348996;33;33445;-76
2022/09/20 04:49:58;;;;;;;4.90;3.22;;;;;;;10.57;74.29;99815.03;4348796;33;33861;-76
2022/09/20 04:52:45;;;;;;;4.72;3.22;;;;;;;10.70;74.45;99813.88;4347634;33;34439;-77
2022/09/20 04:55:34;;;;;;;3.50;2.72;;;;;;;10.30;75.98;99823.00;4348880;33;34695;-76
2022/09/20 04:58:26;;;;;;;5.05;3.15;;;;;;;10.57;75.56;99823.19;4348744;33;34201;-77
2022/09/20 05:00:54;;;;;;;5.55;3.37;;;;;;;10.82;73.79;99826.28;4347694;33;33819;-77
2022/09/20 05:03:59;;;;;;;4.57;2.95;;;;;;;10.90;74.22;99825.03;4348882;33;34246;-76
2022/09/20 05:07:03;;;;;;;3.83;2.83;;;;;;;11.18;72.98;99829.50;4348677;33;34785;-77
2022/09/20 05:09:49;;;;;;;4.12;3.28;;;;;;;10.84;74.62;99828.75;4347633;33;34339;-76
2022/09/20 05:12:36;;;;;;;5.47;2.87;;;;;;;11.04;73.88;99830.94;4348565;33;34697;-77
2022/09/20 05:15:33;;;;;;;4.05;3.08;;;;;;;11.18;72.87;99829.50;4348304;33;34307;-77
2022/09/20 05:18:25;;;;;;;5.20;3.55;;;;;;;11.60;70.94;99837.12;4348620;33;34081;-77
2022/09/20 05:21:05;;;;;;;4.28;3.00;;;;;;;11.67;70.55;99837.75;4349880;32;33554;-77
2022/09/20 05:23:54;;;;;;;10.50;3.15;;;;;;;11.44;71.84;99843.44;4363639;32;33816;-77
2022/09/20 05:26:27;;;;;;;4.05;2.60;;;;;;;11.25;72.76;99842.91;4363264;32;34197;-77
2022/09/20 05:29:13;;;;;;;3.95;3.12;;;;;;;11.09;73.20;99844.59;4363871;32;34053;-77
2022/09/20 05:32:18;;;;;;;4.15;2.75;;;;;;;11.01;75.56;99845.81;4349906;32;34139;-77
2022/09/20 05:35:22;;;;;;;13.10;10.05;;;;;;;11.77;72.83;99845.22;4349734;32;33883;-77
2022/09/20 05:38:05;;;;;;;4.43;2.87;;;;;;;12.04;73.02;99852.59;4363595;32;35054;-77
2022/09/20 05:41:02;;;;;;;4.18;2.78;;;;;;;12.47;69.75;99857.09;4362382;32;34045;-77
2022/09/20 05:43:35;;;;;;;4.37;2.50;;;;;;;12.48;70.04;99858.75;4350047;32;33475;-78
2022/09/20 05:46:44;;;;;;;4.68;2.65;;;;;;;12.79;67.89;99855.44;4350254;32;33936;-77
2022/09/20 05:49:17;;;;;;;3.25;2.22;;;;;;;12.99;68.00;99862.94;4349946;32;35059;-77
2022/09/20 05:51:53;;;;;;;4.18;2.60;;;;;;;13.24;66.99;99859.53;4363181;32;33873;-76
2022/09/20 05:54:42;;;;;;;4.03;2.30;;;;;;;13.39;68.49;99856.09;4363272;32;33374;-77
2022/09/20 05:57:46;;;;;;;3.37;2.00;;;;;;;13.90;64.83;99857.13;4363444;32;33923;-77
2022/09/20 06:00:19;;;;;;;4.62;2.30;;;;;;;13.33;66.82;99856.09;4347966;32;34748;-75
2022/09/20 06:02:52;;;;;;;6.55;3.20;;;;;;;13.41;67.84;99862.13;4334796;33;34063;-75
2022/09/20 06:05:49;;;;;;;4.15;2.87;;;;;;;13.93;65.53;99870.25;4341050;33;33609;-74
2022/09/20 06:08:40;;;;;;;5.62;3.22;;;;;;;14.60;63.70;99869.56;4335450;33;34391;-74
2022/09/20 06:11:12;;;;;;;5.00;3.75;;;;;;;14.78;63.11;99871.78;4335218;33;33979;-76
2022/09/20 06:14:02;;;;;;;6.47;3.87;;;;;;;15.23;60.55;99870.09;4332667;32;34145;-75
2022/09/20 06:16:51;;;;;;;5.32;2.65;;;;;;;14.72;62.16;99873.66;4353497;32;34360;-75
2022/09/20 06:19:28;;;;;;;4.45;2.37;;;;;;;14.74;61.46;99876.12;4351142;32;33872;-74
2022/09/20 06:21:58;;;;;;;4.90;2.70;;;;;;;14.90;61.77;99875.06;4339563;33;35087;-74
2022/09/20 06:24:44;;;;;;;3.70;2.72;;;;;;;14.40;64.28;99878.53;4320676;33;33597;-76
2022/09/20 06:27:19;;;;;;;4.53;2.75;;;;;;;14.66;65.84;99882.13;4319631;33;33391;-76
2022/09/20 06:29:52;;;;;;;3.55;2.45;;;;;;;14.55;67.11;99884.84;4332462;33;34707;-75
2022/09/20 06:32:19;;;;;;;3.12;2.28;;;;;;;15.12;64.98;99876.66;4347157;33;35136;-76
2022/09/20 06:34:47;;;;;;;3.15;2.00;;;;;;;15.15;64.64;99879.66;4348410;33;34206;-76
2022/09/20 06:43:22;;;;;;;4.57;2.30;;;;;;;15.03;65.79;99868.22;4345614;33;35031;-75
2022/09/20 06:45:50;;;;;;;3.05;2.10;;;;;;;14.87;65.37;99875.59;4348156;33;34686;-77
2022/09/20 06:48:18;;;;;;;4.28;2.10;;;;;;;14.55;65.21;99873.94;4344531;32;33585;-73
2022/09/20 06:50:45;;;;;;;3.83;2.42;;;;;;;15.24;63.79;99877.16;4345302;33;33696;-72
2022/09/20 06:53:25;;;;;;;3.62;2.12;;;;;;;14.95;64.16;99869.56;4347126;33;34034;-80
2022/09/20 06:55:52;;;;;;;6.93;2.45;;;;;;;15.18;62.44;99875.53;4334460;33;34588;-81
2022/09/20 06:58:20;;;;;;;2.60;2.10;;;;;;;14.94;63.18;99875.31;4334349;33;34151;-80
2022/09/20 07:00:47;;;;;;;4.22;2.60;;;;;;;14.32;64.80;99875.25;4352422;32;34549;-80
2022/09/20 07:03:15;;;;;;;4.45;2.30;;;;;;;14.42;64.32;99882.62;4348807;32;33971;-79
2022/09/20 07:05:42;;;;;;;4.40;2.55;;;;;;;14.61;63.14;99877.50;4351267;32;34676;-80
2022/09/20 07:08:10;;;;;;;4.22;2.62;;;;;;;14.51;63.04;99878.28;4347672;32;34227;-80
2022/09/20 07:10:38;;;;;;;2.75;2.42;;;;;;;13.52;65.63;99881.00;4348253;32;34764;-80
2022/09/20 07:13:06;;;;;;;4.50;2.83;;;;;;;14.04;65.41;99884.75;4344600;33;33962;-79
2022/09/20 07:15:33;;;;;;;4.12;2.70;;;;;;;13.84;64.79;99884.66;4339028;33;34022;-80
2022/09/20 07:18:01;;;;;;;3.15;2.30;;;;;;;13.33;67.27;99888.78;4346134;33;33235;-80
2022/09/20 07:20:28;;;;;;;4.07;2.83;;;;;;;13.28;67.32;99887.91;4337508;32;33986;-79
2022/09/20 07:22:56;;;;;;;4.28;2.78;;;;;;;13.25;68.06;99900.16;4346799;32;34910;-79
2022/09/20 07:25:23;;;;;;;4.05;2.67;;;;;;;13.46;66.61;99892.97;4346204;33;33652;-76
2022/09/20 07:27:51;;;;;;;4.22;2.90;;;;;;;13.09;68.15;99893.78;4346831;33;33718;-85
2022/09/20 07:30:19;;;;;;;3.50;2.75;;;;;;;13.28;67.61;99910.56;4357344;32;36663;-75
2022/09/20 07:32:46;;;;;;;4.05;2.70;;;;;;;13.26;67.22;99915.44;4349157;32;34319;-79
2022/09/20 07:35:14;;;;;;;4.18;2.60;;;;;;;12.98;67.16;99910.31;4346278;33;34106;-74
2022/09/20 07:37:41;;;;;;;3.95;2.42;;;;;;;13.16;68.74;99909.91;4346613;33;34374;-76
2022/09/20 07:40:09;;;;;;;3.97;3.15;;;;;;;12.61;69.16;99913.81;4346173;33;33699;-74
2022/09/20 07:42:37;;;;;;;4.37;2.80;;;;;;;13.11;68.80;99909.87;4345927;33;35049;-77
2022/09/20 07:45:06;;;;;;;3.08;2.50;;;;;;;12.50;69.92;99916.47;4346217;33;32505;-81
2022/09/20 07:47:34;;;;;;;3.60;2.45;;;;;;;12.46;69.50;99914.47;4346337;33;33555;-81
2022/09/20 07:50:02;;;;;;;3.40;2.47;;;;;;;13.24;68.86;99916.75;4346488;33;34208;-87
2022/09/20 07:52:30;;;;;;;3.95;2.28;;;;;;;13.14;70.26;99917.53;4347052;33;34198;-81
2022/09/20 07:54:57;;;;;;;2.35;1.95;;;;;;;13.62;68.99;99909.37;4346562;33;33690;-76
2022/09/20 07:57:25;;;;;;;5.05;2.40;;;;;;;13.36;67.74;99917.41;4346234;33;34144;-78
2022/09/20 07:59:52;;;;;;;2.80;2.50;;;;;;;12.99;68.74;99912.78;4346639;33;33718;-78
2022/09/20 08:02:20;;;;;;;6.18;2.65;;;;;;;13.08;70.36;99916.66;4345870;32;33868;-76
2022/09/20 08:04:48;;;;;;;3.75;2.35;;;;;;;13.53;67.90;99912.63;4350823;32;34817;-77
2022/09/20 08:07:16;;;;;;;3.65;2.40;;;;;;;13.71;69.49;99916.81;4345250;33;33027;-74
2022/09/20 08:09:43;;;;;;;3.20;2.08;;;;;;;13.60;65.85;99911.56;4349481;32;33042;-84
2022/09/20 08:12:13;;;;;;;5.28;2.12;;;;;;;13.46;65.99;99922.13;4346712;33;34181;-83
2022/09/20 08:15:00;;;;;;;3.22;1.90;;;;;;;13.58;64.16;99917.28;4346505;33;34164;-77
2022/09/20 08:17:28;;;;;;;2.37;1.92;;;;;;;13.80;64.70;99925.31;4346697;33;32909;-74
2022/09/20 08:19:55;;;;;;;3.47;2.10;;;;;;;13.68;64.61;99920.06;4346612;33;34725;-78
2022/09/20 08:22:23;;;;;;;4.50;2.20;;;;;;;13.90;64.17;99922.59;4346968;32;34275;-77
2022/09/20 08:24:51;;;;;;;2.78;2.10;;;;;;;14.27;64.10;99929.81;4346210;33;33958;-72
2022/09/20 08:27:18;;;;;;;3.62;2.10;;;;;;;14.03;64.03;99924.00;4346488;33;33563;-82
2022/09/20 08:29:46;;;;;;;4.30;2.00;;;;;;;14.13;64.83;99924.06;4346562;33;34824;-77
2022/09/20 08:32:13;;;;;;;2.70;1.92;;;;;;;14.32;63.33;99923.56;4346503;33;34263;-78
2022/09/20 08:34:41;;;;;;;2.80;2.03;;;;;;;14.12;65.41;99921.59;4344885;33;34022;-81
2022/09/20 08:37:08;;;;;;;2.25;1.95;;;;;;;14.72;62.00;99916.56;4336060;33;33385;-79
2022/09/20 08:39:36;;;;;;;3.65;2.00;;;;;;;14.40;63.52;99920.28;4346270;33;33850;-75
2022/09/20 08:42:35;;;;;;;2.85;2.20;;;;;;;15.24;60.04;99917.34;4346145;33;33989;-79
2022/09/20 08:45:14;;;;;;;3.12;2.30;;;;;;;14.92;62.27;99929.41;4331431;33;35282;-80
2022/09/20 08:47:54;;;;;;;2.22;2.00;;;;;;;14.57;62.22;99933.75;4342062;32;33462;-76
2022/09/20 08:50:25;;;;;;;2.30;1.98;;;;;;;14.47;60.94;99930.94;4339011;33;34036;-75
2022/09/20 08:52:55;;;;;;;3.15;1.90;;;;;;;14.20;63.70;99933.91;4348007;33;34661;-84
2022/09/20 08:55:30;;;;;;;2.62;2.00;;;;;;;14.50;62.82;99930.44;4335570;33;33697;-76
2022/09/20 08:58:03;;;;;;;2.37;1.80;;;;;;;14.69;63.71;99933.50;4343332;32;33318;-76
2022/09/20 09:00:37;;;;;;;2.30;1.90;;;;;;;15.14;61.70;99934.56;4345231;33;34072;-80
2022/09/20 09:03:09;;;;;;;3.10;1.90;;;;;;;15.28;61.95;99938.41;4346498;33;35062;-82
2022/09/20 09:05:41;;;;;;;2.55;2.05;;;;;;;14.48;62.61;99927.97;4347337;33;34591;-77
2022/09/20 09:08:27;;;;;;;2.37;1.80;;;;;;;15.08;61.10;99927.50;4359024;32;34318;-91
2022/09/20 09:11:08;;;;;;;2.22;1.73;;;;;;;15.33;61.70;99924.75;4347331;33;34026;-84
2022/09/20 09:13:50;;;;;;;2.65;1.73;;;;;;;15.18;60.50;99924.72;4335154;33;34241;-85
2022/09/20 09:16:19;;;;;;;4.32;1.73;;;;;;;14.84;61.69;99925.31;4347720;33;33418;-76
2022/09/20 09:18:56;;;;;;;2.70;1.70;;;;;;;14.98;60.69;99926.38;4347106;33;33656;-90
2022/09/20 09:21:27;;;;;;;3.42;2.03;;;;;;;14.72;60.93;99920.09;4360770;32;33704;-80
2022/09/20 09:24:18;;;;;;;4.10;2.03;;;;;;;14.10;62.81;99931.94;4331726;33;34154;-83
2022/09/20 09:26:45;;;;;;;2.40;1.90;;;;;;;14.72;63.27;99911.91;4332643;33;33990;-87
2022/09/20 09:29:13;;;;;;;2.17;1.50;;;;;;;15.51;60.87;99920.59;4347449;33;33015;-84
2022/09/20 09:31:40;;;;;;;2.05;1.65;;;;;;;16.02;57.95;99916.87;4347706;33;34081;-75
2022/09/20 09:34:28;;;;;;;3.10;1.60;;;;;;;15.06;63.12;99916.84;4347816;33;34171;-82
2022/09/20 09:36:57;;;;;;;2.75;1.50;;;;;;;15.00;59.43;99914.38;4346907;33;34809;-81
2022/09/20 09:39:27;;;;;;;2.00;1.50;;;;;;;15.16;59.26;99919.56;4348036;33;33554;-83
2022/09/20 09:41:59;;;;;;;2.67;1.60;;;;;;;14.67;60.91;99922.84;4347813;32;34072;-77
2022/09/20 09:44:29;;;;;;;2.05;1.48;;;;;;;15.03;58.08;99922.00;4348015;33;33856;-76
2022/09/20 09:46:57;;;;;;;1.37;1.20;;;;;;;14.33;61.17;99922.47;4348048;33;33842;-83
2022/09/20 09:49:34;;;;;;;1.42;1.33;;;;;;;15.00;59.38;99933.50;4333154;33;33539;-78
2022/09/20 09:52:03;;;;;;;2.70;1.77;;;;;;;14.94;59.53;99921.75;4339890;33;34822;-85
2022/09/20 09:54:40;;;;;;;1.80;1.30;;;;;;;15.15;58.30;99920.62;4347048;33;34196;-81
2022/09/20 09:57:48;;;;;;;2.22;1.73;;;;;;;15.43;57.50;99917.59;4332346;33;34750;-80
2022/09/20 10:00:18;;;;;;;2.25;1.62;;;;;;;15.25;58.19;99914.34;4345549;33;33317;-81
2022/09/20 10:03:06;;;;;;;3.25;1.60;;;;;;;15.13;58.86;99914.63;4347955;33;33964;-85
2022/09/20 10:05:57;;;;;;;2.53;1.30;;;;;;;15.81;57.29;99901.63;4347920;33;35070;-82
2022/09/20 10:08:34;;;;;;;1.75;1.50;;;;;;;15.02;58.04;99909.47;4337574;33;34928;-84
2022/09/20 10:11:09;;;;;;;2.12;1.27;;;;;;;15.65;58.75;99906.31;4348090;33;33388;-75
2022/09/20 10:13:36;;;;;;;2.03;1.60;;;;;;;15.96;57.53;99904.31;4337662;33;33921;-77
2022/09/20 10:16:38;;;;;;;1.62;1.20;;;;;;;15.48;57.34;99906.66;4335858;33;34290;-78
2022/09/20 10:19:12;;;;;;;1.62;1.40;;;;;;;15.27;55.46;99914.06;4340510;33;34015;-79
2022/09/20 10:21:47;;;;;;;2.00;1.58;;;;;;;15.78;55.81;99922.97;4355819;32;33538;-77
2022/09/20 10:24:29;;;;;;;1.75;1.40;;;;;;;15.43;56.27;99907.47;4350909;32;33884;-88
2022/09/20 10:27:11;;;;;;;2.55;1.23;;;;;;;16.11;55.39;99907.00;4359160;32;34040;-86
2022/09/20 10:30:10;;;;;;;2.10;1.20;;;;;;;15.90;55.41;99909.00;4359769;32;34163;-83
2022/09/20 10:32:44;;;;;;;1.95;1.52;;;;;;;16.39;55.43;99913.69;4352586;32;34295;-80
2022/09/20 10:35:36;;;;;;;1.48;1.30;;;;;;;15.89;54.77;99904.63;4361798;32;34604;-77
2022/09/20 10:38:07;;;;;;;2.67;1.40;;;;;;;15.58;55.14;99903.88;4362651;32;33780;-80
2022/09/20 10:44:09;;;;;;;1.33;1.12;;;;;;;16.96;53.05;99883.16;4367723;32;33208;-79
2022/09/20 10:47:20;;;;;;;2.35;1.33;;;;;;;17.02;54.33;99895.69;4334765;32;33857;-80
2022/09/20 10:49:47;;;;;;;1.83;1.37;;;;;;;17.44;53.46;99888.69;4315241;33;34285;-80
2022/09/20 10:52:41;;;;;;;1.27;1.17;;;;;;;17.68;51.81;99879.66;4352585;32;34152;-80
2022/09/20 10:55:25;;;;;;;1.83;1.48;;;;;;;18.39;50.84;99889.69;4348338;32;33656;-78
2022/09/20 10:58:12;;;;;;;2.37;1.42;;;;;;;18.34;51.10;99900.75;4362229;32;33607;-79
2022/09/20 11:00:41;;;;;;;2.00;1.35;;;;;;;18.36;51.81;99909.53;4362562;32;34202;-78
2022/09/20 11:03:37;;;;;;;3.55;1.60;;;;;;;18.29;51.84;99919.25;4348239;32;34066;-84
2022/09/20 11:06:10;;;;;;;1.73;1.37;;;;;;;17.88;54.89;99919.78;4336457;32;33335;-83
2022/09/20 11:08:38;;;;;;;2.03;1.48;;;;;;;17.33;57.60;99907.19;4362485;32;33667;-85
2022/09/20 11:11:15;;;;;;;2.80;1.60;;;;;;;17.47;56.23;99915.53;4348491;32;35120;-78
2022/09/20 11:13:46;;;;;;;2.60;1.75;;;;;;;17.39;56.26;99917.00;4349100;32;34068;-85
2022/09/20 11:16:17;;;;;;;3.20;1.65;;;;;;;16.68;59.13;99904.72;4361115;32;33339;-86
2022/09/20 11:18:59;;;;;;;1.70;1.60;;;;;;;16.29;60.88;99904.72;4362414;32;33957;-77
2022/09/20 11:21:39;;;;;;;2.53;1.70;;;;;;;15.86;63.91;99901.63;4362552;32;33998;-77
2022/09/20 11:24:35;;;;;;;3.92;2.37;;;;;;;15.66;63.87;99897.84;4346510;32;33938;-79
2022/09/20 11:27:19;;;;;;;6.55;3.17;;;;;;;15.39;66.08;99904.47;4347420;33;33441;-82
2022/09/20 11:30:02;;;;;;;5.28;3.95;;;;;;;15.32;63.94;99893.00;4334454;33;34343;-86
2022/09/20 11:32:35;;;;;;;3.87;2.10;;;;;;;15.70;64.90;99896.19;4347740;33;34025;-78
2022/09/20 11:35:13;;;;;;;9.38;2.25;;;;;;;16.00;62.05;99883.50;4347825;33;34157;-86
2022/09/20 11:37:46;;;;;;;2.40;1.70;;;;;;;16.85;58.72;99884.34;4334638;33;33427;-83
2022/09/20 11:40:22;;;;;;;3.15;2.00;;;;;;;16.62;62.11;99884.75;4323237;33;33720;-77
2022/09/20 11:42:51;;;;;;;1.65;1.55;;;;;;;16.17;60.95;99874.91;4346993;33;34965;-78
2022/09/20 11:45:19;;;;;;;1.83;1.45;;;;;;;16.32;60.26;99872.09;4357271;32;34827;-75
2022/09/20 11:48:18;;;;;;;2.78;1.52;;;;;;;16.47;58.13;99873.91;4346967;33;34362;-74
2022/09/20 11:50:55;;;;;;;2.45;1.60;;;;;;;16.60;57.29;99876.00;4356747;32;33461;-81
2022/09/20 11:53:48;;;;;;;2.83;1.45;;;;;;;15.86;59.02;99872.34;4335046;33;35099;-75
2022/09/20 11:56:19;;;;;;;1.50;1.35;;;;;;;16.44;58.56;99869.00;4333396;33;34897;-84
2022/09/20 11:58:49;;;;;;;2.33;1.40;;;;;;;16.73;57.92;99871.78;4333490;33;34389;-77
2022/09/20 12:01:28;;;;;;;2.00;1.50;;;;;;;16.32;58.83;99871.28;4345772;33;33857;-77
2022/09/20 12:03:59;;;;;;;1.73;1.45;;;;;;;16.11;60.03;99865.09;4333378;33;34026;-84
2022/09/20 12:07:05;;;;;;;2.08;1.40;;;;;;;16.80;59.10;99866.00;4335282;33;34058;-77
2022/09/20 12:09:41;;;;;;;3.37;1.50;;;;;;;16.78;58.66;99862.69;4331871;33;33548;-76
2022/09/20 12:12:31;;;;;;;2.28;1.33;;;;;;;17.10;57.51;99861.34;4333453;33;33912;-77
2022/09/20 12:15:00;;;;;;;1.65;1.20;;;;;;;17.42;56.60;99860.72;4333351;33;33827;-81
2022/09/20 12:17:45;;;;;;;2.75;1.30;;;;;;;17.51;54.08;99858.97;4346762;33;34176;-80
2022/09/20 12:20:34;;;;;;;1.20;1.10;;;;;;;17.00;57.18;99852.12;4346724;33;33466;-80
2022/09/20 12:23:42;;;;;;;1.10;1.00;;;;;;;16.75;54.43;99853.12;4347088;33;34720;-79
2022/09/20 12:26:19;;;;;;;1.65;1.40;;;;;;;17.33;54.56;99857.81;4335770;33;33988;-81
2022/09/20 12:28:53;;;;;;;2.00;1.20;;;;;;;17.69;53.20;99857.41;4348078;32;33932;-79
2022/09/20 12:31:25;;;;;;;1.30;1.20;;;;;;;17.76;52.88;99866.09;4334888;33;33595;-77
2022/09/20 12:34:01;;;;;;;2.85;1.30;;;;;;;17.79;53.43;99859.19;4348351;33;34034;-85
2022/09/20 12:36:33;;;;;;;2.15;1.50;;;;;;;17.81;53.37;99859.72;4341583;33;33994;-82
2022/09/20 12:39:12;;;;;;;1.67;1.20;;;;;;;17.89;51.93;99856.34;4334976;33;34988;-77